sensor_id;sensor_type;location;lat;lon;timestamp;temperature;humidity
42187;DHT22;27858;51.414;0.018;2022-08-02T00:00:58;20.80;99.90
42187;DHT22;27858;51.414;0.018;2022-08-02T00:03:28;20.70;99.90
42187;DHT22;27858;51.414;0.018;2022-08-02T00:05:56;20.70;99.90
42187;DHT22;27858;51.414;0.018;2022-08-02T00:08:23;20.60;99.90
42187;DHT22;27858;51.414;0.018;2022-08-02T00:10:50;20.50;99.90
42187;DHT22;27858;51.414;0.018;2022-08-02T00:13:17;20.50;99.90
42187;DHT22;27858;51.414;0.018;2022-08-02T00:15:44;20.60;99.90
42187;DHT22;27858;51.414;0.018;2022-08-02T00:18:10;20.50;99.90
42187;DHT22;27858;51.414;0.018;2022-08-02T00:20:37;20.50;99.90
42187;DHT22;27858;51.414;0.018;2022-08-02T00:23:04;20.50;99.90
42187;DHT22;27858;51.414;0.018;2022-08-02T00:25:31;20.50;99.90
42187;DHT22;27858;51.414;0.018;2022-08-02T00:27:58;20.40;99.90
42187;DHT22;27858;51.414;0.018;2022-08-02T00:30:25;20.40;99.90
42187;DHT22;27858;51.414;0.018;2022-08-02T00:32:52;20.40;99.90
42187;DHT22;27858;51.414;0.018;2022-08-02T00:35:18;20.40;99.90
42187;DHT22;27858;51.414;0.018;2022-08-02T00:37:45;20.40;99.90
42187;DHT22;27858;51.414;0.018;2022-08-02T00:40:12;20.40;99.90
42187;DHT22;27858;51.414;0.018;2022-08-02T00:42:39;20.40;99.90
42187;DHT22;27858;51.414;0.018;2022-08-02T00:45:07;20.30;99.90
42187;DHT22;27858;51.414;0.018;2022-08-02T00:47:34;20.40;99.90
42187;DHT22;27858;51.414;0.018;2022-08-02T00:50:01;20.20;99.90
42187;DHT22;27858;51.414;0.018;2022-08-02T00:52:29;20.20;99.90
42187;DHT22;27858;51.414;0.018;2022-08-02T00:54:55;20.20;99.90
42187;DHT22;27858;51.414;0.018;2022-08-02T00:57:22;20.20;99.90
42187;DHT22;27858;51.414;0.018;2022-08-02T00:59:49;20.20;99.90
42187;DHT22;27858;51.414;0.018;2022-08-02T01:02:16;20.30;99.90
42187;DHT22;27858;51.414;0.018;2022-08-02T01:04:44;20.20;99.90
42187;DHT22;27858;51.414;0.018;2022-08-02T01:07:11;20.10;99.90
42187;DHT22;27858;51.414;0.018;2022-08-02T01:09:43;20.10;1.00
42187;DHT22;27858;51.414;0.018;2022-08-02T01:12:11;20.10;1.00
42187;DHT22;27858;51.414;0.018;2022-08-02T01:14:45;20.10;99.90
42187;DHT22;27858;51.414;0.018;2022-08-02T01:17:29;20.20;99.90
42187;DHT22;27858;51.414;0.018;2022-08-02T01:28:35;20.00;1.00
42187;DHT22;27858;51.414;0.018;2022-08-02T01:31:26;20.00;1.00
42187;DHT22;27858;51.414;0.018;2022-08-02T01:34:18;20.00;1.00
42187;DHT22;27858;51.414;0.018;2022-08-02T01:36:53;20.00;1.00
42187;DHT22;27858;51.414;0.018;2022-08-02T01:39:26;19.90;1.00
42187;DHT22;27858;51.414;0.018;2022-08-02T01:41:58;20.00;1.00
42187;DHT22;27858;51.414;0.018;2022-08-02T01:44:34;19.90;1.00
42187;DHT22;27858;51.414;0.018;2022-08-02T01:47:05;19.80;1.00
42187;DHT22;27858;51.414;0.018;2022-08-02T01:49:33;19.90;1.00
42187;DHT22;27858;51.414;0.018;2022-08-02T01:52:02;19.90;1.00
42187;DHT22;27858;51.414;0.018;2022-08-02T01:57:22;19.90;1.00
42187;DHT22;27858;51.414;0.018;2022-08-02T01:59:50;19.80;1.00
42187;DHT22;27858;51.414;0.018;2022-08-02T02:02:19;19.80;1.00
42187;DHT22;27858;51.414;0.018;2022-08-02T02:04:48;19.80;1.00
42187;DHT22;27858;51.414;0.018;2022-08-02T02:07:16;19.80;1.00
42187;DHT22;27858;51.414;0.018;2022-08-02T02:09:45;19.70;1.00
42187;DHT22;27858;51.414;0.018;2022-08-02T02:12:18;19.70;1.00
42187;DHT22;27858;51.414;0.018;2022-08-02T02:14:46;19.70;1.00
42187;DHT22;27858;51.414;0.018;2022-08-02T02:17:19;19.70;1.00
42187;DHT22;27858;51.414;0.018;2022-08-02T02:20:15;19.80;1.00
42187;DHT22;27858;51.414;0.018;2022-08-02T02:22:43;19.80;1.00
42187;DHT22;27858;51.414;0.018;2022-08-02T02:25:17;19.80;1.00
42187;DHT22;27858;51.414;0.018;2022-08-02T02:27:59;19.80;1.00
42187;DHT22;27858;51.414;0.018;2022-08-02T02:30:29;19.80;1.00
42187;DHT22;27858;51.414;0.018;2022-08-02T02:33:01;19.80;1.00
42187;DHT22;27858;51.414;0.018;2022-08-02T02:35:33;19.80;1.00
42187;DHT22;27858;51.414;0.018;2022-08-02T02:38:07;19.80;1.00
42187;DHT22;27858;51.414;0.018;2022-08-02T02:40:35;19.70;1.00
42187;DHT22;27858;51.414;0.018;2022-08-02T02:43:03;19.70;1.00
42187;DHT22;27858;51.414;0.018;2022-08-02T02:45:31;19.70;1.00
42187;DHT22;27858;51.414;0.018;2022-08-02T02:47:59;19.60;1.00
42187;DHT22;27858;51.414;0.018;2022-08-02T02:50:29;19.70;1.00
42187;DHT22;27858;51.414;0.018;2022-08-02T02:52:56;19.70;1.00
42187;DHT22;27858;51.414;0.018;2022-08-02T02:55:27;19.70;1.00
42187;DHT22;27858;51.414;0.018;2022-08-02T02:57:55;19.80;1.00
42187;DHT22;27858;51.414;0.018;2022-08-02T03:00:23;19.80;1.00
42187;DHT22;27858;51.414;0.018;2022-08-02T03:03:09;19.80;1.00
42187;DHT22;27858;51.414;0.018;2022-08-02T03:05:36;19.70;1.00
42187;DHT22;27858;51.414;0.018;2022-08-02T03:08:04;19.80;1.00
42187;DHT22;27858;51.414;0.018;2022-08-02T03:10:31;19.60;1.00
42187;DHT22;27858;51.414;0.018;2022-08-02T03:12:59;19.60;1.00
42187;DHT22;27858;51.414;0.018;2022-08-02T03:15:30;19.60;1.00
42187;DHT22;27858;51.414;0.018;2022-08-02T03:17:57;19.50;1.00
42187;DHT22;27858;51.414;0.018;2022-08-02T03:20:24;19.50;1.00
42187;DHT22;27858;51.414;0.018;2022-08-02T03:22:51;19.50;1.00
42187;DHT22;27858;51.414;0.018;2022-08-02T03:25:18;19.50;1.00
42187;DHT22;27858;51.414;0.018;2022-08-02T03:27:46;19.50;1.00
42187;DHT22;27858;51.414;0.018;2022-08-02T03:30:15;19.40;1.00
42187;DHT22;27858;51.414;0.018;2022-08-02T03:32:50;19.40;1.00
42187;DHT22;27858;51.414;0.018;2022-08-02T03:35:18;19.40;1.00
42187;DHT22;27858;51.414;0.018;2022-08-02T03:37:51;19.30;1.00
42187;DHT22;27858;51.414;0.018;2022-08-02T03:40:18;19.40;1.00
42187;DHT22;27858;51.414;0.018;2022-08-02T03:42:45;19.30;1.00
42187;DHT22;27858;51.414;0.018;2022-08-02T03:45:13;19.40;1.00
42187;DHT22;27858;51.414;0.018;2022-08-02T03:47:41;19.40;1.00
42187;DHT22;27858;51.414;0.018;2022-08-02T03:50:11;19.40;1.00
42187;DHT22;27858;51.414;0.018;2022-08-02T03:52:41;19.40;1.00
42187;DHT22;27858;51.414;0.018;2022-08-02T03:55:10;19.30;1.00
42187;DHT22;27858;51.414;0.018;2022-08-02T03:57:40;19.30;1.00
42187;DHT22;27858;51.414;0.018;2022-08-02T04:00:14;19.30;1.00
42187;DHT22;27858;51.414;0.018;2022-08-02T04:02:43;19.30;1.00
42187;DHT22;27858;51.414;0.018;2022-08-02T04:05:10;19.20;1.00
42187;DHT22;27858;51.414;0.018;2022-08-02T04:07:37;19.30;1.00
42187;DHT22;27858;51.414;0.018;2022-08-02T04:10:25;19.20;7.70
42187;DHT22;27858;51.414;0.018;2022-08-02T04:12:52;19.20;17.90
42187;DHT22;27858;51.414;0.018;2022-08-02T04:15:19;19.20;28.30
42187;DHT22;27858;51.414;0.018;2022-08-02T04:17:55;19.10;41.20
42187;DHT22;27858;51.414;0.018;2022-08-02T04:20:29;19.10;55.40
42187;DHT22;27858;51.414;0.018;2022-08-02T04:23:04;19.00;77.30
42187;DHT22;27858;51.414;0.018;2022-08-02T04:25:33;19.00;82.30
42187;DHT22;27858;51.414;0.018;2022-08-02T04:28:07;19.00;90.10
42187;DHT22;27858;51.414;0.018;2022-08-02T04:30:47;19.10;99.90
42187;DHT22;27858;51.414;0.018;2022-08-02T04:33:15;19.00;99.90
42187;DHT22;27858;51.414;0.018;2022-08-02T04:35:43;19.00;99.90
42187;DHT22;27858;51.414;0.018;2022-08-02T04:38:14;19.00;93.80
42187;DHT22;27858;51.414;0.018;2022-08-02T04:40:50;19.00;99.90
42187;DHT22;27858;51.414;0.018;2022-08-02T04:43:18;19.00;99.90
42187;DHT22;27858;51.414;0.018;2022-08-02T04:45:47;19.00;99.90
42187;DHT22;27858;51.414;0.018;2022-08-02T04:48:15;19.00;99.90
42187;DHT22;27858;51.414;0.018;2022-08-02T04:50:42;19.00;99.90
42187;DHT22;27858;51.414;0.018;2022-08-02T04:53:09;19.00;99.90
42187;DHT22;27858;51.414;0.018;2022-08-02T04:55:35;19.00;99.90
42187;DHT22;27858;51.414;0.018;2022-08-02T04:58:02;18.90;99.90
42187;DHT22;27858;51.414;0.018;2022-08-02T05:00:49;19.00;99.90
42187;DHT22;27858;51.414;0.018;2022-08-02T05:03:16;19.00;99.90
42187;DHT22;27858;51.414;0.018;2022-08-02T05:05:43;18.90;99.90
42187;DHT22;27858;51.414;0.018;2022-08-02T05:08:10;19.00;99.90
42187;DHT22;27858;51.414;0.018;2022-08-02T05:10:37;18.90;99.90
42187;DHT22;27858;51.414;0.018;2022-08-02T05:13:04;19.00;99.90
42187;DHT22;27858;51.414;0.018;2022-08-02T05:15:31;19.00;99.90
42187;DHT22;27858;51.414;0.018;2022-08-02T05:17:59;19.00;99.90
42187;DHT22;27858;51.414;0.018;2022-08-02T05:20:26;19.00;99.90
42187;DHT22;27858;51.414;0.018;2022-08-02T05:22:53;19.00;99.90
42187;DHT22;27858;51.414;0.018;2022-08-02T05:25:20;19.00;99.90
42187;DHT22;27858;51.414;0.018;2022-08-02T05:27:47;19.00;99.90
42187;DHT22;27858;51.414;0.018;2022-08-02T05:30:14;19.10;99.90
42187;DHT22;27858;51.414;0.018;2022-08-02T05:32:48;19.10;99.90
42187;DHT22;27858;51.414;0.018;2022-08-02T05:35:19;19.10;99.90
42187;DHT22;27858;51.414;0.018;2022-08-02T05:37:48;19.10;99.90
42187;DHT22;27858;51.414;0.018;2022-08-02T05:40:17;19.20;99.90
42187;DHT22;27858;51.414;0.018;2022-08-02T05:42:52;19.20;99.90
42187;DHT22;27858;51.414;0.018;2022-08-02T05:45:19;19.20;99.90
42187;DHT22;27858;51.414;0.018;2022-08-02T05:47:46;19.30;99.90
42187;DHT22;27858;51.414;0.018;2022-08-02T05:50:15;19.30;99.90
42187;DHT22;27858;51.414;0.018;2022-08-02T05:55:27;19.40;99.90
42187;DHT22;27858;51.414;0.018;2022-08-02T05:58:48;19.50;99.90
42187;DHT22;27858;51.414;0.018;2022-08-02T06:00:56;19.50;99.90
42187;DHT22;27858;51.414;0.018;2022-08-02T06:03:38;19.50;95.00
42187;DHT22;27858;51.414;0.018;2022-08-02T06:06:12;19.70;99.90
42187;DHT22;27858;51.414;0.018;2022-08-02T06:08:45;19.70;99.90
42187;DHT22;27858;51.414;0.018;2022-08-02T06:11:16;19.80;99.90
42187;DHT22;27858;51.414;0.018;2022-08-02T06:13:46;19.80;99.90
42187;DHT22;27858;51.414;0.018;2022-08-02T06:16:14;19.90;99.90
42187;DHT22;27858;51.414;0.018;2022-08-02T06:18:44;19.80;99.90
42187;DHT22;27858;51.414;0.018;2022-08-02T06:21:13;19.80;99.90
42187;DHT22;27858;51.414;0.018;2022-08-02T06:24:02;19.90;99.90
42187;DHT22;27858;51.414;0.018;2022-08-02T06:26:30;19.90;99.90
42187;DHT22;27858;51.414;0.018;2022-08-02T06:29:00;19.90;99.90
42187;DHT22;27858;51.414;0.018;2022-08-02T06:31:29;19.90;99.90
42187;DHT22;27858;51.414;0.018;2022-08-02T06:33:57;20.00;99.90
42187;DHT22;27858;51.414;0.018;2022-08-02T06:39:42;20.10;95.30
42187;DHT22;27858;51.414;0.018;2022-08-02T06:42:20;20.10;97.90
42187;DHT22;27858;51.414;0.018;2022-08-02T06:44:53;20.10;92.10
42187;DHT22;27858;51.414;0.018;2022-08-02T06:47:24;20.30;63.50
42187;DHT22;27858;51.414;0.018;2022-08-02T06:49:55;20.20;81.00
42187;DHT22;27858;51.414;0.018;2022-08-02T06:52:26;20.20;95.10
42187;DHT22;27858;51.414;0.018;2022-08-02T06:54:57;20.20;98.90
42187;DHT22;27858;51.414;0.018;2022-08-02T06:57:24;20.30;92.50
42187;DHT22;27858;51.414;0.018;2022-08-02T06:59:51;20.40;80.20
42187;DHT22;27858;51.414;0.018;2022-08-02T07:02:18;20.40;66.40
42187;DHT22;27858;51.414;0.018;2022-08-02T07:04:46;20.50;60.30
42187;DHT22;27858;51.414;0.018;2022-08-02T07:07:13;20.60;45.40
42187;DHT22;27858;51.414;0.018;2022-08-02T07:09:41;20.60;41.40
42187;DHT22;27858;51.414;0.018;2022-08-02T07:12:30;20.60;28.90
42187;DHT22;27858;51.414;0.018;2022-08-02T07:15:03;20.70;37.80
42187;DHT22;27858;51.414;0.018;2022-08-02T07:17:30;20.60;34.20
42187;DHT22;27858;51.414;0.018;2022-08-02T07:19:58;20.80;21.90
42187;DHT22;27858;51.414;0.018;2022-08-02T07:22:26;20.80;16.90
42187;DHT22;27858;51.414;0.018;2022-08-02T07:24:56;20.80;19.40
42187;DHT22;27858;51.414;0.018;2022-08-02T07:27:23;20.90;19.60
42187;DHT22;27858;51.414;0.018;2022-08-02T07:29:51;20.90;19.20
42187;DHT22;27858;51.414;0.018;2022-08-02T07:32:19;21.10;13.60
42187;DHT22;27858;51.414;0.018;2022-08-02T07:34:47;21.20;5.20
42187;DHT22;27858;51.414;0.018;2022-08-02T07:37:23;21.40;1.00
42187;DHT22;27858;51.414;0.018;2022-08-02T07:40:14;21.30;1.00
42187;DHT22;27858;51.414;0.018;2022-08-02T07:42:48;21.40;1.00
42187;DHT22;27858;51.414;0.018;2022-08-02T07:45:18;21.30;1.00
42187;DHT22;27858;51.414;0.018;2022-08-02T07:47:45;21.40;1.00
42187;DHT22;27858;51.414;0.018;2022-08-02T07:50:14;21.50;1.00
42187;DHT22;27858;51.414;0.018;2022-08-02T07:52:42;21.60;1.00
42187;DHT22;27858;51.414;0.018;2022-08-02T07:55:13;21.70;1.00
42187;DHT22;27858;51.414;0.018;2022-08-02T07:57:40;21.80;1.00
42187;DHT22;27858;51.414;0.018;2022-08-02T08:00:13;21.70;1.00
42187;DHT22;27858;51.414;0.018;2022-08-02T08:02:44;21.60;1.00
42187;DHT22;27858;51.414;0.018;2022-08-02T08:05:12;21.60;1.00
42187;DHT22;27858;51.414;0.018;2022-08-02T08:07:39;21.80;1.00
42187;DHT22;27858;51.414;0.018;2022-08-02T08:10:10;21.80;1.00
42187;DHT22;27858;51.414;0.018;2022-08-02T08:12:39;21.80;1.00
42187;DHT22;27858;51.414;0.018;2022-08-02T08:15:10;22.00;1.00
42187;DHT22;27858;51.414;0.018;2022-08-02T08:17:45;22.00;1.00
42187;DHT22;27858;51.414;0.018;2022-08-02T08:20:12;22.00;1.00
42187;DHT22;27858;51.414;0.018;2022-08-02T08:22:46;22.10;1.00
42187;DHT22;27858;51.414;0.018;2022-08-02T08:25:13;22.20;1.00
42187;DHT22;27858;51.414;0.018;2022-08-02T08:27:53;22.30;1.00
42187;DHT22;27858;51.414;0.018;2022-08-02T08:30:21;22.30;1.00
42187;DHT22;27858;51.414;0.018;2022-08-02T08:32:52;22.50;1.00
42187;DHT22;27858;51.414;0.018;2022-08-02T08:35:21;22.50;1.00
42187;DHT22;27858;51.414;0.018;2022-08-02T08:37:48;22.60;1.00
42187;DHT22;27858;51.414;0.018;2022-08-02T08:40:18;22.60;1.00
42187;DHT22;27858;51.414;0.018;2022-08-02T08:42:46;22.60;1.00
42187;DHT22;27858;51.414;0.018;2022-08-02T08:45:12;22.60;1.00
42187;DHT22;27858;51.414;0.018;2022-08-02T08:47:41;22.70;1.00
42187;DHT22;27858;51.414;0.018;2022-08-02T08:50:18;22.70;1.00
42187;DHT22;27858;51.414;0.018;2022-08-02T08:53:03;22.70;1.00
42187;DHT22;27858;51.414;0.018;2022-08-02T08:55:33;22.90;1.00
42187;DHT22;27858;51.414;0.018;2022-08-02T08:58:01;23.00;1.00
42187;DHT22;27858;51.414;0.018;2022-08-02T09:00:33;23.00;1.00
42187;DHT22;27858;51.414;0.018;2022-08-02T09:03:06;23.10;1.00
42187;DHT22;27858;51.414;0.018;2022-08-02T09:05:35;22.90;1.00
42187;DHT22;27858;51.414;0.018;2022-08-02T09:08:14;22.90;1.00
42187;DHT22;27858;51.414;0.018;2022-08-02T09:10:46;22.90;1.00
42187;DHT22;27858;51.414;0.018;2022-08-02T09:13:25;22.90;1.00
42187;DHT22;27858;51.414;0.018;2022-08-02T09:16:11;22.80;1.00
42187;DHT22;27858;51.414;0.018;2022-08-02T09:18:43;22.80;1.00
42187;DHT22;27858;51.414;0.018;2022-08-02T09:21:12;22.80;1.00
42187;DHT22;27858;51.414;0.018;2022-08-02T09:23:43;22.70;1.00
42187;DHT22;27858;51.414;0.018;2022-08-02T09:26:19;22.80;1.00
42187;DHT22;27858;51.414;0.018;2022-08-02T09:28:51;22.80;1.00
42187;DHT22;27858;51.414;0.018;2022-08-02T09:31:28;22.80;1.00
42187;DHT22;27858;51.414;0.018;2022-08-02T09:33:59;22.80;1.00
42187;DHT22;27858;51.414;0.018;2022-08-02T09:36:39;22.70;1.00
42187;DHT22;27858;51.414;0.018;2022-08-02T09:39:09;22.80;1.00
42187;DHT22;27858;51.414;0.018;2022-08-02T09:41:44;22.80;1.00
42187;DHT22;27858;51.414;0.018;2022-08-02T09:44:13;22.90;1.00
42187;DHT22;27858;51.414;0.018;2022-08-02T09:46:47;22.90;1.00
42187;DHT22;27858;51.414;0.018;2022-08-02T09:49:17;22.90;1.00
42187;DHT22;27858;51.414;0.018;2022-08-02T09:54:24;22.80;1.00
42187;DHT22;27858;51.414;0.018;2022-08-02T09:56:58;22.80;1.00
42187;DHT22;27858;51.414;0.018;2022-08-02T09:59:26;22.90;1.00
42187;DHT22;27858;51.414;0.018;2022-08-02T10:02:00;22.80;1.00
42187;DHT22;27858;51.414;0.018;2022-08-02T10:04:43;22.90;1.00
42187;DHT22;27858;51.414;0.018;2022-08-02T10:07:20;22.80;1.00
42187;DHT22;27858;51.414;0.018;2022-08-02T10:09:49;22.90;1.00
42187;DHT22;27858;51.414;0.018;2022-08-02T10:12:18;23.00;1.00
42187;DHT22;27858;51.414;0.018;2022-08-02T10:14:46;23.10;1.00
42187;DHT22;27858;51.414;0.018;2022-08-02T10:17:15;23.20;1.00
42187;DHT22;27858;51.414;0.018;2022-08-02T10:19:45;23.00;1.00
42187;DHT22;27858;51.414;0.018;2022-08-02T10:22:29;23.10;1.00
42187;DHT22;27858;51.414;0.018;2022-08-02T10:24:57;23.10;1.00
42187;DHT22;27858;51.414;0.018;2022-08-02T10:27:27;23.10;1.00
42187;DHT22;27858;51.414;0.018;2022-08-02T10:30:15;23.00;1.00
42187;DHT22;27858;51.414;0.018;2022-08-02T10:32:44;23.10;1.00
42187;DHT22;27858;51.414;0.018;2022-08-02T10:35:17;23.20;1.00
42187;DHT22;27858;51.414;0.018;2022-08-02T10:37:59;23.20;1.00
42187;DHT22;27858;51.414;0.018;2022-08-02T10:40:54;23.30;1.00
42187;DHT22;27858;51.414;0.018;2022-08-02T10:46:29;23.30;1.00
42187;DHT22;27858;51.414;0.018;2022-08-02T10:54:37;23.40;1.00
42187;DHT22;27858;51.414;0.018;2022-08-02T10:57:20;23.40;1.00
42187;DHT22;27858;51.414;0.018;2022-08-02T10:59:50;23.50;1.00
42187;DHT22;27858;51.414;0.018;2022-08-02T11:02:41;23.40;1.00
42187;DHT22;27858;51.414;0.018;2022-08-02T11:05:14;23.70;1.00
42187;DHT22;27858;51.414;0.018;2022-08-02T11:07:42;23.60;1.00
42187;DHT22;27858;51.414;0.018;2022-08-02T11:10:28;23.60;1.00
42187;DHT22;27858;51.414;0.018;2022-08-02T11:15:29;23.60;1.00
42187;DHT22;27858;51.414;0.018;2022-08-02T11:17:57;23.70;1.00
42187;DHT22;27858;51.414;0.018;2022-08-02T11:20:27;23.70;1.00
42187;DHT22;27858;51.414;0.018;2022-08-02T11:22:54;23.90;1.00
42187;DHT22;27858;51.414;0.018;2022-08-02T11:25:41;23.80;1.00
42187;DHT22;27858;51.414;0.018;2022-08-02T11:28:29;23.90;1.00
42187;DHT22;27858;51.414;0.018;2022-08-02T11:30:58;23.90;1.00
42187;DHT22;27858;51.414;0.018;2022-08-02T11:33:32;23.90;1.00
42187;DHT22;27858;51.414;0.018;2022-08-02T11:36:04;23.90;1.00
42187;DHT22;27858;51.414;0.018;2022-08-02T11:38:32;23.90;1.00
42187;DHT22;27858;51.414;0.018;2022-08-02T11:41:00;24.00;1.00
42187;DHT22;27858;51.414;0.018;2022-08-02T11:43:37;24.00;1.00
42187;DHT22;27858;51.414;0.018;2022-08-02T11:46:11;24.00;1.00
42187;DHT22;27858;51.414;0.018;2022-08-02T11:48:40;24.10;1.00
42187;DHT22;27858;51.414;0.018;2022-08-02T11:51:15;24.00;1.00
42187;DHT22;27858;51.414;0.018;2022-08-02T11:53:51;24.00;1.00
42187;DHT22;27858;51.414;0.018;2022-08-02T11:56:26;24.00;1.00
42187;DHT22;27858;51.414;0.018;2022-08-02T11:59:08;24.00;1.00
42187;DHT22;27858;51.414;0.018;2022-08-02T12:01:40;24.00;1.00
42187;DHT22;27858;51.414;0.018;2022-08-02T12:04:15;24.00;1.00
42187;DHT22;27858;51.414;0.018;2022-08-02T12:06:55;24.20;1.00
42187;DHT22;27858;51.414;0.018;2022-08-02T12:09:22;24.10;1.00
42187;DHT22;27858;51.414;0.018;2022-08-02T12:11:50;24.00;1.00
42187;DHT22;27858;51.414;0.018;2022-08-02T12:14:18;24.10;1.00
42187;DHT22;27858;51.414;0.018;2022-08-02T12:16:46;24.10;1.00
42187;DHT22;27858;51.414;0.018;2022-08-02T12:19:33;24.30;1.00
42187;DHT22;27858;51.414;0.018;2022-08-02T12:24:39;24.10;1.00
42187;DHT22;27858;51.414;0.018;2022-08-02T12:27:08;24.20;1.00
42187;DHT22;27858;51.414;0.018;2022-08-02T12:29:39;24.20;1.00
42187;DHT22;27858;51.414;0.018;2022-08-02T12:32:25;24.30;1.00
42187;DHT22;27858;51.414;0.018;2022-08-02T12:37:39;24.00;1.00
42187;DHT22;27858;51.414;0.018;2022-08-02T12:40:44;24.30;1.00
42187;DHT22;27858;51.414;0.018;2022-08-02T12:43:20;24.60;1.00
42187;DHT22;27858;51.414;0.018;2022-08-02T12:45:52;24.50;1.00
42187;DHT22;27858;51.414;0.018;2022-08-02T12:48:52;24.80;99.90
42187;DHT22;27858;51.414;0.018;2022-08-02T12:51:39;24.80;99.90
42187;DHT22;27858;51.414;0.018;2022-08-02T12:54:29;24.80;99.90
42187;DHT22;27858;51.414;0.018;2022-08-02T12:57:09;24.90;99.90
42187;DHT22;27858;51.414;0.018;2022-08-02T12:59:41;24.70;99.90
42187;DHT22;27858;51.414;0.018;2022-08-02T13:02:12;24.70;99.90
42187;DHT22;27858;51.414;0.018;2022-08-02T13:04:41;24.60;99.90
42187;DHT22;27858;51.414;0.018;2022-08-02T13:07:19;24.60;99.90
42187;DHT22;27858;51.414;0.018;2022-08-02T13:09:46;24.70;99.90
42187;DHT22;27858;51.414;0.018;2022-08-02T13:12:14;24.70;99.90
42187;DHT22;27858;51.414;0.018;2022-08-02T13:14:42;24.70;99.90
42187;DHT22;27858;51.414;0.018;2022-08-02T13:17:10;24.60;99.90
42187;DHT22;27858;51.414;0.018;2022-08-02T13:19:37;24.80;99.90
42187;DHT22;27858;51.414;0.018;2022-08-02T13:22:04;24.90;99.90
42187;DHT22;27858;51.414;0.018;2022-08-02T13:24:37;24.90;99.90
42187;DHT22;27858;51.414;0.018;2022-08-02T13:27:23;25.00;99.90
42187;DHT22;27858;51.414;0.018;2022-08-02T13:29:50;25.20;99.90
42187;DHT22;27858;51.414;0.018;2022-08-02T13:32:18;25.00;99.90
42187;DHT22;27858;51.414;0.018;2022-08-02T13:34:45;25.20;99.90
42187;DHT22;27858;51.414;0.018;2022-08-02T13:37:12;25.20;99.90
42187;DHT22;27858;51.414;0.018;2022-08-02T13:39:39;25.20;99.90
42187;DHT22;27858;51.414;0.018;2022-08-02T13:42:07;25.50;99.90
42187;DHT22;27858;51.414;0.018;2022-08-02T13:44:42;26.10;99.90
42187;DHT22;27858;51.414;0.018;2022-08-02T13:47:09;26.20;99.90
42187;DHT22;27858;51.414;0.018;2022-08-02T13:49:37;26.00;99.90
42187;DHT22;27858;51.414;0.018;2022-08-02T13:52:17;26.70;99.90
42187;DHT22;27858;51.414;0.018;2022-08-02T13:54:44;27.00;99.90
42187;DHT22;27858;51.414;0.018;2022-08-02T13:57:11;26.50;99.90
42187;DHT22;27858;51.414;0.018;2022-08-02T13:59:38;26.70;99.90
42187;DHT22;27858;51.414;0.018;2022-08-02T14:02:27;26.80;99.90
42187;DHT22;27858;51.414;0.018;2022-08-02T14:04:58;26.30;99.90
42187;DHT22;27858;51.414;0.018;2022-08-02T14:07:25;25.90;99.90
42187;DHT22;27858;51.414;0.018;2022-08-02T14:09:51;25.90;99.90
42187;DHT22;27858;51.414;0.018;2022-08-02T14:12:18;25.80;99.90
42187;DHT22;27858;51.414;0.018;2022-08-02T14:14:45;25.80;99.90
42187;DHT22;27858;51.414;0.018;2022-08-02T14:17:12;25.80;99.90
42187;DHT22;27858;51.414;0.018;2022-08-02T14:19:39;25.40;99.90
42187;DHT22;27858;51.414;0.018;2022-08-02T14:22:09;25.50;99.90
42187;DHT22;27858;51.414;0.018;2022-08-02T14:24:38;25.50;99.90
42187;DHT22;27858;51.414;0.018;2022-08-02T14:27:10;25.40;99.90
42187;DHT22;27858;51.414;0.018;2022-08-02T14:29:40;25.60;99.90
42187;DHT22;27858;51.414;0.018;2022-08-02T14:32:07;25.60;99.90
42187;DHT22;27858;51.414;0.018;2022-08-02T14:34:34;25.50;99.90
42187;DHT22;27858;51.414;0.018;2022-08-02T14:37:02;25.40;99.90
42187;DHT22;27858;51.414;0.018;2022-08-02T14:39:38;25.50;99.90
42187;DHT22;27858;51.414;0.018;2022-08-02T14:42:29;25.50;99.90
42187;DHT22;27858;51.414;0.018;2022-08-02T14:44:56;25.30;99.90
42187;DHT22;27858;51.414;0.018;2022-08-02T14:47:24;25.70;99.90
42187;DHT22;27858;51.414;0.018;2022-08-02T14:49:51;26.00;99.90
42187;DHT22;27858;51.414;0.018;2022-08-02T14:52:18;26.10;99.90
42187;DHT22;27858;51.414;0.018;2022-08-02T14:54:46;26.50;99.90
42187;DHT22;27858;51.414;0.018;2022-08-02T14:57:16;26.70;99.90
42187;DHT22;27858;51.414;0.018;2022-08-02T14:59:44;26.00;99.90
42187;DHT22;27858;51.414;0.018;2022-08-02T15:02:14;25.80;99.90
42187;DHT22;27858;51.414;0.018;2022-08-02T15:04:42;25.60;99.90
42187;DHT22;27858;51.414;0.018;2022-08-02T15:07:10;25.50;99.90
42187;DHT22;27858;51.414;0.018;2022-08-02T15:09:37;25.30;99.90
42187;DHT22;27858;51.414;0.018;2022-08-02T15:12:06;25.10;99.90
42187;DHT22;27858;51.414;0.018;2022-08-02T15:14:33;25.00;99.90
42187;DHT22;27858;51.414;0.018;2022-08-02T15:17:00;25.10;99.90
42187;DHT22;27858;51.414;0.018;2022-08-02T15:19:51;25.30;99.90
42187;DHT22;27858;51.414;0.018;2022-08-02T15:22:25;25.30;99.90
42187;DHT22;27858;51.414;0.018;2022-08-02T15:24:54;25.70;99.90
42187;DHT22;27858;51.414;0.018;2022-08-02T15:27:22;26.00;99.90
42187;DHT22;27858;51.414;0.018;2022-08-02T15:29:50;26.10;99.90
42187;DHT22;27858;51.414;0.018;2022-08-02T15:32:17;25.90;99.90
42187;DHT22;27858;51.414;0.018;2022-08-02T15:34:46;26.20;99.90
42187;DHT22;27858;51.414;0.018;2022-08-02T15:37:19;26.60;99.90
42187;DHT22;27858;51.414;0.018;2022-08-02T15:40:11;27.20;99.90
42187;DHT22;27858;51.414;0.018;2022-08-02T15:42:49;27.10;99.90
42187;DHT22;27858;51.414;0.018;2022-08-02T15:45:17;27.10;99.90
42187;DHT22;27858;51.414;0.018;2022-08-02T15:47:51;27.00;99.90
42187;DHT22;27858;51.414;0.018;2022-08-02T15:50:18;27.10;99.90
42187;DHT22;27858;51.414;0.018;2022-08-02T15:52:46;27.10;99.90
42187;DHT22;27858;51.414;0.018;2022-08-02T15:55:13;26.80;99.90
42187;DHT22;27858;51.414;0.018;2022-08-02T15:57:40;26.40;99.90
42187;DHT22;27858;51.414;0.018;2022-08-02T16:00:07;26.30;99.90
42187;DHT22;27858;51.414;0.018;2022-08-02T16:02:45;26.20;99.90
42187;DHT22;27858;51.414;0.018;2022-08-02T16:05:13;25.80;99.90
42187;DHT22;27858;51.414;0.018;2022-08-02T16:07:40;26.50;99.90
42187;DHT22;27858;51.414;0.018;2022-08-02T16:10:07;26.60;99.90
42187;DHT22;27858;51.414;0.018;2022-08-02T16:12:34;27.40;99.90
42187;DHT22;27858;51.414;0.018;2022-08-02T16:15:01;27.90;99.90
42187;DHT22;27858;51.414;0.018;2022-08-02T16:17:28;28.00;99.90
42187;DHT22;27858;51.414;0.018;2022-08-02T16:20:15;27.50;99.90
42187;DHT22;27858;51.414;0.018;2022-08-02T16:22:41;27.20;99.90
42187;DHT22;27858;51.414;0.018;2022-08-02T16:25:08;26.70;99.90
42187;DHT22;27858;51.414;0.018;2022-08-02T16:27:42;26.40;99.90
42187;DHT22;27858;51.414;0.018;2022-08-02T16:30:29;26.30;99.90
42187;DHT22;27858;51.414;0.018;2022-08-02T16:32:56;26.40;99.90
42187;DHT22;27858;51.414;0.018;2022-08-02T16:35:23;26.30;99.90
42187;DHT22;27858;51.414;0.018;2022-08-02T16:37:50;26.50;99.90
42187;DHT22;27858;51.414;0.018;2022-08-02T16:40:19;26.40;99.90